Time;durP1;ratioP1;P1;durP2;ratioP2;P2;SDS_P1;SDS_P2;PMS_P1;PMS_P2;Temp;Humidity;BMP_temperature;BMP_pressure;BME280_temperature;BME280_humidity;BME280_pressure;Samples;Min_cycle;Max_cycle;Signal;HPM_P1;HPM_P2
2021/12/12 00:02:23;;;;;;;;;;;0.90;90.40;;;;;;5034581;28;19995;-66
2021/12/12 00:04:50;;;;;;;;;;;0.80;90.40;;;;;;5034580;28;20463;-66
2021/12/12 00:07:20;;;;;;;;;;;0.60;89.40;;;;;;5034447;28;19944;-66
2021/12/12 00:09:47;;;;;;;;;;;0.40;89.20;;;;;;5034471;28;20467;-66
2021/12/12 00:12:24;;;;;;;;;;;0.20;90.20;;;;;;5034316;28;19957;-66
2021/12/12 00:14:51;;;;;;;;;;;0.10;90.50;;;;;;5034651;28;19945;-66
2021/12/12 00:17:17;;;;;;;;;;;0.00;90.90;;;;;;5034303;28;19950;-66
2021/12/12 00:19:43;;;;;;;;;;;0.00;91.30;;;;;;5034255;28;19986;-66
2021/12/12 00:22:10;;;;;;;;;;;0.10;92.00;;;;;;5034463;28;20323;-66
2021/12/12 00:24:37;;;;;;;;;;;0.10;92.20;;;;;;5034170;28;20451;-66
2021/12/12 00:27:03;;;;;;;;;;;0.10;92.30;;;;;;5034012;28;20028;-66
2021/12/12 00:29:28;;;;;;;;;;;0.20;92.40;;;;;;5034035;28;20386;-66
2021/12/12 00:31:57;;;;;;;;;;;0.20;92.50;;;;;;5034021;28;19947;-66
2021/12/12 00:34:23;;;;;;;;;;;0.20;92.60;;;;;;5033993;28;19944;-66
2021/12/12 00:36:49;;;;;;;;;;;0.30;92.50;;;;;;5033914;28;19941;-66
2021/12/12 00:39:19;;;;;;;;;;;0.30;92.30;;;;;;5033892;28;19943;-66
2021/12/12 00:41:49;;;;;;;;;;;0.30;92.30;;;;;;5033869;28;19945;-66
2021/12/12 00:44:15;;;;;;;;;;;0.40;92.20;;;;;;5033845;28;19937;-66
2021/12/12 00:46:41;;;;;;;;;;;0.40;92.20;;;;;;5033795;28;19944;-66
2021/12/12 00:49:08;;;;;;;;;;;0.50;91.90;;;;;;5033418;28;19942;-66
2021/12/12 00:51:36;;;;;;;;;;;0.60;91.90;;;;;;5033231;28;19950;-66
2021/12/12 00:54:03;;;;;;;;;;;0.70;91.90;;;;;;5033569;28;20032;-66
2021/12/12 00:56:28;;;;;;;;;;;0.80;91.60;;;;;;5033928;28;19950;-66
2021/12/12 00:58:54;;;;;;;;;;;0.80;91.10;;;;;;5033603;28;19937;-66
2021/12/12 01:01:22;;;;;;;;;;;0.80;89.80;;;;;;5033533;28;19944;-66
2021/12/12 01:03:49;;;;;;;;;;;0.70;89.20;;;;;;5033450;28;19946;-66
2021/12/12 01:06:16;;;;;;;;;;;0.70;89.20;;;;;;5033477;28;19992;-66
2021/12/12 01:08:42;;;;;;;;;;;0.70;89.20;;;;;;5015596;28;19938;-66
2021/12/12 01:11:12;;;;;;;;;;;0.70;89.40;;;;;;5033228;28;20475;-66
2021/12/12 01:13:37;;;;;;;;;;;0.80;89.40;;;;;;5015580;28;19974;-66
2021/12/12 01:16:09;;;;;;;;;;;0.60;88.00;;;;;;5033328;28;20039;-66
2021/12/12 01:18:37;;;;;;;;;;;0.50;88.20;;;;;;5033322;28;19945;-66
2021/12/12 01:21:18;;;;;;;;;;;0.50;88.20;;;;;;5033290;28;19943;-66
2021/12/12 01:23:47;;;;;;;;;;;0.50;87.90;;;;;;5015473;28;19944;-66
2021/12/12 01:26:12;;;;;;;;;;;0.50;87.90;;;;;;5015358;28;19978;-66
2021/12/12 01:28:39;;;;;;;;;;;0.50;87.90;;;;;;5033151;28;20400;-66
2021/12/12 01:31:07;;;;;;;;;;;0.20;87.00;;;;;;5015453;28;19946;-66
2021/12/12 01:33:35;;;;;;;;;;;0.10;87.30;;;;;;5033034;28;19966;-66
2021/12/12 01:36:04;;;;;;;;;;;0.20;87.80;;;;;;5033108;28;19953;-66
2021/12/12 01:41:14;;;;;;;;;;;0.40;88.30;;;;;;5033087;28;20411;-66
2021/12/12 01:43:45;;;;;;;;;;;0.40;88.40;;;;;;5033013;28;19938;-66
2021/12/12 01:46:14;;;;;;;;;;;0.30;87.80;;;;;;5033020;28;19937;-66
2021/12/12 01:48:44;;;;;;;;;;;0.30;87.90;;;;;;5032972;28;19945;-66
2021/12/12 01:51:11;;;;;;;;;;;0.30;87.60;;;;;;5032990;28;20176;-66
2021/12/12 01:53:39;;;;;;;;;;;0.30;87.00;;;;;;5015175;28;19962;-66
2021/12/12 01:56:12;;;;;;;;;;;0.30;86.90;;;;;;5032911;28;19951;-66
2021/12/12 01:58:38;;;;;;;;;;;0.20;87.10;;;;;;5032918;28;19946;-66
2021/12/12 02:01:06;;;;;;;;;;;0.00;87.50;;;;;;5033635;28;19983;-66
2021/12/12 02:03:33;;;;;;;;;;;-3276.70;87.90;;;;;;5036846;28;19949;-66
2021/12/12 02:05:59;;;;;;;;;;;-3276.60;89.70;;;;;;5036772;28;19941;-66
2021/12/12 02:08:26;;;;;;;;;;;-3276.50;90.10;;;;;;5036669;28;20042;-66
2021/12/12 02:10:54;;;;;;;;;;;-3276.50;90.50;;;;;;5036470;28;19987;-66
2021/12/12 02:13:21;;;;;;;;;;;-3276.60;90.70;;;;;;5036565;28;20322;-66
2021/12/12 02:15:48;;;;;;;;;;;-3276.60;90.80;;;;;;5036592;28;19943;-66
2021/12/12 02:18:16;;;;;;;;;;;-3276.60;91.10;;;;;;5019053;28;19947;-66
2021/12/12 02:20:53;;;;;;;;;;;-3276.60;91.30;;;;;;5036529;28;19978;-66
2021/12/12 02:35:05;;;;;;;;;;;-3276.60;91.30;;;;;;5036474;28;20396;-66
2021/12/12 02:35:19;;;;;;;;;;;-3276.70;90.60;;;;;;5036273;28;20467;-66
2021/12/12 02:37:15;;;;;;;;;;;-3276.70;90.30;;;;;;5030373;28;20296;-66
2021/12/12 02:39:41;;;;;;;;;;;-3276.70;90.40;;;;;;5036456;28;19944;-66
2021/12/12 02:42:08;;;;;;;;;;;-3276.70;90.30;;;;;;5036122;28;20002;-66
2021/12/12 02:44:35;;;;;;;;;;;-3276.60;90.40;;;;;;5036085;28;19948;-66
2021/12/12 02:47:09;;;;;;;;;;;-3276.60;90.40;;;;;;5036039;28;19946;-66
2021/12/12 02:49:54;;;;;;;;;;;-3276.60;90.40;;;;;;5035964;28;20359;-66
2021/12/12 02:52:24;;;;;;;;;;;-3276.60;90.60;;;;;;5035905;28;19943;-66
2021/12/12 02:54:50;;;;;;;;;;;-3276.60;90.60;;;;;;5035894;28;19977;-66
2021/12/12 02:57:16;;;;;;;;;;;-3276.70;90.60;;;;;;5035853;28;20355;-66
2021/12/12 02:59:42;;;;;;;;;;;-3276.60;90.20;;;;;;5035827;28;20034;-66
2021/12/12 03:02:11;;;;;;;;;;;-3276.60;90.30;;;;;;5035766;28;19943;-66
2021/12/12 03:04:36;;;;;;;;;;;-3276.70;90.30;;;;;;5035722;28;19944;-66
2021/12/12 03:07:03;;;;;;;;;;;-3276.70;89.90;;;;;;5035656;28;20311;-66
2021/12/12 03:09:31;;;;;;;;;;;-3276.50;88.60;;;;;;5035561;28;19999;-66
2021/12/12 03:11:59;;;;;;;;;;;-3276.50;89.70;;;;;;5035370;28;19974;-66
2021/12/12 03:14:31;;;;;;;;;;;-3276.50;90.10;;;;;;5034605;28;20018;-66
2021/12/12 03:16:57;;;;;;;;;;;-3276.60;90.20;;;;;;5035449;28;19990;-66
2021/12/12 03:19:23;;;;;;;;;;;-3276.70;90.60;;;;;;5035441;28;19943;-66
2021/12/12 03:21:48;;;;;;;;;;;0.10;90.20;;;;;;5035385;28;20311;-66
2021/12/12 03:24:19;;;;;;;;;;;0.20;89.60;;;;;;5035358;28;19965;-66
2021/12/12 03:26:46;;;;;;;;;;;0.20;89.10;;;;;;5035180;28;19936;-66
2021/12/12 03:29:13;;;;;;;;;;;0.10;88.90;;;;;;5035277;28;19984;-66
2021/12/12 03:31:41;;;;;;;;;;;0.10;88.90;;;;;;5017511;28;19946;-66
2021/12/12 03:34:08;;;;;;;;;;;0.00;88.90;;;;;;5035070;28;19971;-66
2021/12/12 03:36:34;;;;;;;;;;;0.00;89.00;;;;;;5035128;28;19943;-66
2021/12/12 03:39:05;;;;;;;;;;;0.00;88.70;;;;;;5035117;28;19991;-66
2021/12/12 03:41:34;;;;;;;;;;;-3276.50;88.40;;;;;;5035106;28;20115;-66
2021/12/12 03:44:02;;;;;;;;;;;-3276.40;88.60;;;;;;5035008;28;19936;-66
2021/12/12 03:46:28;;;;;;;;;;;-3276.40;89.10;;;;;;5034942;28;19944;-66
2021/12/12 03:48:54;;;;;;;;;;;-3276.40;89.30;;;;;;5034908;28;20003;-66
2021/12/12 03:51:21;;;;;;;;;;;-3276.40;89.50;;;;;;5034875;28;19941;-66
2021/12/12 03:53:47;;;;;;;;;;;-3276.50;89.70;;;;;;5034705;28;19962;-66
2021/12/12 03:56:13;;;;;;;;;;;-3276.50;89.70;;;;;;5034684;28;19993;-66
2021/12/12 03:58:38;;;;;;;;;;;-3276.50;90.30;;;;;;5016995;28;19955;-66
2021/12/12 04:01:18;;;;;;;;;;;-3276.50;90.30;;;;;;5034666;28;19951;-65
2021/12/12 04:03:46;;;;;;;;;;;-3276.60;90.40;;;;;;5034600;28;19967;-66
2021/12/12 04:06:13;;;;;;;;;;;-3276.50;90.20;;;;;;5034874;28;19940;-66
2021/12/12 04:08:40;;;;;;;;;;;-3276.50;89.80;;;;;;5034454;28;19960;-66
2021/12/12 04:11:11;;;;;;;;;;;-3276.40;89.80;;;;;;5034228;28;19979;-66
2021/12/12 04:13:38;;;;;;;;;;;-3276.30;89.60;;;;;;5034296;28;19969;-66
2021/12/12 04:16:03;;;;;;;;;;;-3276.30;89.80;;;;;;5034354;28;19946;-66
2021/12/12 04:18:29;;;;;;;;;;;-3276.30;90.10;;;;;;5034273;28;19945;-66
2021/12/12 04:20:55;;;;;;;;;;;-3276.30;90.30;;;;;;5034241;28;19936;-66
2021/12/12 04:23:22;;;;;;;;;;;-3276.30;90.30;;;;;;5034252;28;19946;-66
2021/12/12 04:25:48;;;;;;;;;;;-3276.40;90.30;;;;;;5034002;28;19986;-66
2021/12/12 04:28:14;;;;;;;;;;;-3276.40;90.30;;;;;;5034118;28;19949;-66
2021/12/12 04:30:40;;;;;;;;;;;-3276.50;90.20;;;;;;5034113;28;19946;-66
2021/12/12 04:33:06;;;;;;;;;;;-3276.60;90.10;;;;;;5033979;28;19958;-66
2021/12/12 04:35:31;;;;;;;;;;;-3276.60;90.10;;;;;;5034019;28;20312;-66
2021/12/12 04:37:58;;;;;;;;;;;-3276.50;89.90;;;;;;5016208;28;20293;-66
2021/12/12 04:40:25;;;;;;;;;;;-3276.40;89.50;;;;;;5033884;28;20292;-66
2021/12/12 04:42:53;;;;;;;;;;;-3276.30;89.60;;;;;;5033886;28;19981;-66
2021/12/12 04:45:33;;;;;;;;;;;-3276.30;89.80;;;;;;5033842;28;19948;-66
2021/12/12 04:50:49;;;;;;;;;;;-3276.20;89.60;;;;;;5033992;28;20306;-66
2021/12/12 04:53:20;;;;;;;;;;;-3276.10;89.70;;;;;;5033620;28;20017;-66
2021/12/12 04:55:55;;;;;;;;;;;-3276.00;89.70;;;;;;5033655;28;19949;-66
2021/12/12 04:58:26;;;;;;;;;;;-3275.90;89.80;;;;;;5015969;28;19944;-66
2021/12/12 05:01:03;;;;;;;;;;;-3275.90;89.90;;;;;;5033542;28;20021;-66
2021/12/12 05:03:36;;;;;;;;;;;-3275.90;90.00;;;;;;5033509;28;19939;-66
2021/12/12 05:06:04;;;;;;;;;;;-3276.00;90.20;;;;;;5033332;28;20345;-66
2021/12/12 05:08:30;;;;;;;;;;;-3276.00;90.10;;;;;;5033389;28;20012;-66
2021/12/12 05:11:18;;;;;;;;;;;-3276.10;90.20;;;;;;5040577;23;19974;-66
2021/12/12 05:13:55;;;;;;;;;;;-3276.20;90.00;;;;;;5033255;28;19956;-66
2021/12/12 05:16:25;;;;;;;;;;;-3276.40;89.00;;;;;;5033360;28;19953;-66
2021/12/12 05:18:53;;;;;;;;;;;-3276.50;88.60;;;;;;5033260;28;19988;-66
2021/12/12 05:21:23;;;;;;;;;;;-3276.60;87.70;;;;;;5033238;28;20080;-66
2021/12/12 05:23:50;;;;;;;;;;;-3276.50;87.30;;;;;;5033226;28;20411;-66
2021/12/12 05:26:18;;;;;;;;;;;-3276.40;87.60;;;;;;5033074;28;19942;-66
2021/12/12 05:28:50;;;;;;;;;;;-3276.40;88.00;;;;;;5033147;28;19944;-66
2021/12/12 05:31:17;;;;;;;;;;;-3276.40;88.10;;;;;;5033043;28;20292;-66
2021/12/12 05:33:43;;;;;;;;;;;-3276.50;87.90;;;;;;5033024;28;19962;-66
2021/12/12 05:36:10;;;;;;;;;;;-3276.60;87.10;;;;;;5032546;28;19944;-66
2021/12/12 05:38:36;;;;;;;;;;;-3276.40;87.30;;;;;;5033045;28;19942;-66
2021/12/12 05:41:02;;;;;;;;;;;-3276.30;87.90;;;;;;5033046;28;19990;-66
2021/12/12 05:43:28;;;;;;;;;;;-3276.20;87.80;;;;;;5032992;28;19992;-66
2021/12/12 05:45:54;;;;;;;;;;;-3276.30;87.90;;;;;;5032972;28;20360;-66
2021/12/12 05:48:20;;;;;;;;;;;-3276.30;88.00;;;;;;5032907;28;19985;-66
2021/12/12 05:50:46;;;;;;;;;;;-3276.30;87.30;;;;;;5032809;28;19984;-66
2021/12/12 05:53:13;;;;;;;;;;;-3276.40;86.70;;;;;;5032821;28;19963;-66
2021/12/12 05:55:39;;;;;;;;;;;-3276.40;86.30;;;;;;5032898;28;19949;-66
2021/12/12 05:58:05;;;;;;;;;;;-3276.40;86.40;;;;;;5033150;28;19940;-66
2021/12/12 06:00:33;;;;;;;;;;;-3276.30;86.40;;;;;;5032858;28;19993;-66
2021/12/12 06:02:59;;;;;;;;;;;-3276.30;86.40;;;;;;5032804;28;20035;-66
2021/12/12 06:05:25;;;;;;;;;;;-3276.10;86.40;;;;;;5032794;28;20382;-66
2021/12/12 06:07:54;;;;;;;;;;;-3276.00;86.50;;;;;;5032808;28;19945;-66
2021/12/12 06:10:20;;;;;;;;;;;-3275.70;86.80;;;;;;5032567;28;19970;-66
2021/12/12 06:12:46;;;;;;;;;;;-3275.70;87.20;;;;;;5032671;28;19965;-66
2021/12/12 06:15:14;;;;;;;;;;;-3275.70;87.20;;;;;;5032989;28;19971;-66
2021/12/12 06:17:40;;;;;;;;;;;-3275.80;87.10;;;;;;5032681;28;19938;-66
2021/12/12 06:20:07;;;;;;;;;;;-3275.90;87.70;;;;;;5032685;28;19946;-66
2021/12/12 06:22:33;;;;;;;;;;;-3276.00;87.70;;;;;;5014953;28;19965;-66
2021/12/12 06:24:58;;;;;;;;;;;-3276.10;87.50;;;;;;5032946;28;19939;-66
2021/12/12 06:27:24;;;;;;;;;;;-3275.80;87.20;;;;;;5032535;28;19940;-66
2021/12/12 06:29:52;;;;;;;;;;;-3275.70;88.30;;;;;;5032572;28;20038;-66
2021/12/12 06:32:17;;;;;;;;;;;-3275.80;88.70;;;;;;5032461;28;19936;-66
2021/12/12 06:34:43;;;;;;;;;;;-3275.90;89.20;;;;;;5032589;28;19947;-66
2021/12/12 06:37:09;;;;;;;;;;;-3276.00;88.90;;;;;;5032551;28;19949;-66
2021/12/12 06:39:34;;;;;;;;;;;-3276.00;88.80;;;;;;5032558;28;19937;-66
2021/12/12 06:42:01;;;;;;;;;;;-3276.10;89.00;;;;;;5032514;28;20288;-66
2021/12/12 06:44:27;;;;;;;;;;;-3276.10;89.00;;;;;;5032499;28;19952;-66
2021/12/12 06:46:53;;;;;;;;;;;-3276.20;89.00;;;;;;5032409;28;20321;-66
2021/12/12 06:49:19;;;;;;;;;;;-3276.30;88.90;;;;;;5034980;28;19952;-66
2021/12/12 06:51:52;;;;;;;;;;;-3276.30;88.60;;;;;;5035936;28;19943;-66
2021/12/12 06:54:19;;;;;;;;;;;-3276.20;87.40;;;;;;5035684;28;19974;-66
2021/12/12 06:56:46;;;;;;;;;;;-3276.20;88.70;;;;;;5035828;28;19936;-66
2021/12/12 06:59:12;;;;;;;;;;;-3276.20;89.20;;;;;;5035848;28;20034;-66
2021/12/12 07:01:37;;;;;;;;;;;-3276.10;89.00;;;;;;5035755;28;19989;-67
2021/12/12 07:04:06;;;;;;;;;;;-3276.10;88.70;;;;;;5035701;28;19947;-66
2021/12/12 07:06:32;;;;;;;;;;;-3276.00;88.90;;;;;;5017901;28;19949;-66
2021/12/12 07:08:59;;;;;;;;;;;-3276.10;88.90;;;;;;5035567;28;20446;-66
2021/12/12 07:11:27;;;;;;;;;;;-3276.10;88.70;;;;;;5035444;28;19967;-66
2021/12/12 07:13:53;;;;;;;;;;;-3276.10;88.70;;;;;;5035519;28;19966;-66
2021/12/12 07:16:21;;;;;;;;;;;-3276.10;88.60;;;;;;5035485;28;19936;-66
2021/12/12 07:18:47;;;;;;;;;;;-3276.10;88.60;;;;;;5035455;28;20386;-66
2021/12/12 07:21:14;;;;;;;;;;;-3276.20;88.40;;;;;;5035405;28;19945;-67
2021/12/12 07:23:41;;;;;;;;;;;-3276.30;88.40;;;;;;5035376;28;20040;-67
2021/12/12 07:26:07;;;;;;;;;;;-3276.30;87.70;;;;;;5035242;28;19944;-67
2021/12/12 07:28:34;;;;;;;;;;;-3276.40;87.90;;;;;;5035298;28;19952;-66
2021/12/12 07:31:07;;;;;;;;;;;-3276.50;88.20;;;;;;5035282;28;19943;-66
2021/12/12 07:33:33;;;;;;;;;;;-3276.70;88.50;;;;;;5035124;28;19963;-66
2021/12/12 07:36:00;;;;;;;;;;;0.00;88.60;;;;;;5035124;28;19999;-65
2021/12/12 07:38:27;;;;;;;;;;;0.00;87.70;;;;;;5035109;28;19940;-65
2021/12/12 07:40:53;;;;;;;;;;;0.10;87.20;;;;;;5035050;28;19961;-65
2021/12/12 07:43:20;;;;;;;;;;;0.40;84.50;;;;;;5035039;28;19943;-65
2021/12/12 07:45:47;;;;;;;;;;;0.60;84.00;;;;;;5035182;28;19944;-65
2021/12/12 07:48:13;;;;;;;;;;;0.70;83.40;;;;;;5034948;28;19935;-65
2021/12/12 07:50:39;;;;;;;;;;;0.80;83.10;;;;;;5034893;28;19941;-65
2021/12/12 07:53:05;;;;;;;;;;;0.80;83.20;;;;;;5034740;28;20272;-65
2021/12/12 07:55:32;;;;;;;;;;;0.80;83.60;;;;;;5034776;28;19940;-65
2021/12/12 07:57:57;;;;;;;;;;;0.70;84.80;;;;;;5034648;28;20011;-66
2021/12/12 08:00:25;;;;;;;;;;;0.80;84.90;;;;;;5034224;28;20347;-66
2021/12/12 08:02:51;;;;;;;;;;;0.80;84.80;;;;;;5034600;28;19936;-66
2021/12/12 08:05:17;;;;;;;;;;;0.90;84.40;;;;;;5016775;28;20064;-66
2021/12/12 08:07:43;;;;;;;;;;;1.00;84.00;;;;;;5034500;28;19956;-66
2021/12/12 08:10:10;;;;;;;;;;;1.10;83.70;;;;;;5034247;28;20061;-66
2021/12/12 08:12:36;;;;;;;;;;;1.20;83.10;;;;;;5034673;28;20000;-66
2021/12/12 08:15:06;;;;;;;;;;;1.20;82.60;;;;;;5034692;28;20015;-66
2021/12/12 08:17:32;;;;;;;;;;;1.30;82.70;;;;;;5034304;28;19944;-66
2021/12/12 08:19:58;;;;;;;;;;;1.40;83.30;;;;;;5034327;28;20042;-66
2021/12/12 08:22:24;;;;;;;;;;;1.50;83.10;;;;;;5034254;28;19947;-66
2021/12/12 08:24:50;;;;;;;;;;;1.50;83.20;;;;;;5034208;28;19943;-66
2021/12/12 08:27:15;;;;;;;;;;;1.60;83.30;;;;;;5034048;28;20079;-66
2021/12/12 08:29:42;;;;;;;;;;;1.70;82.60;;;;;;5034136;28;19949;-66
2021/12/12 08:32:09;;;;;;;;;;;1.80;82.20;;;;;;5034051;28;19942;-66
2021/12/12 08:34:35;;;;;;;;;;;1.90;82.20;;;;;;5033955;28;19963;-66
2021/12/12 08:37:01;;;;;;;;;;;1.90;81.90;;;;;;5034000;28;19963;-66
2021/12/12 08:39:28;;;;;;;;;;;1.90;83.00;;;;;;5016215;28;19978;-66
2021/12/12 08:41:54;;;;;;;;;;;1.90;82.70;;;;;;5033889;28;20151;-66
2021/12/12 08:44:20;;;;;;;;;;;1.90;83.50;;;;;;5033839;28;19935;-66
2021/12/12 08:46:49;;;;;;;;;;;2.00;82.60;;;;;;5033780;28;20307;-66
2021/12/12 08:49:15;;;;;;;;;;;2.00;82.60;;;;;;5034041;28;19966;-66
2021/12/12 08:51:43;;;;;;;;;;;2.10;82.30;;;;;;5033698;28;19949;-66
2021/12/12 08:54:15;;;;;;;;;;;2.20;80.80;;;;;;5033610;28;19992;-66
2021/12/12 08:56:47;;;;;;;;;;;2.30;79.40;;;;;;5033650;28;19972;-66
2021/12/12 08:59:21;;;;;;;;;;;2.50;80.70;;;;;;5033600;28;19975;-66
2021/12/12 09:01:47;;;;;;;;;;;2.60;81.50;;;;;;5033526;28;20009;-66
2021/12/12 09:04:13;;;;;;;;;;;2.70;79.70;;;;;;5033526;28;19944;-66
2021/12/12 09:06:44;;;;;;;;;;;2.90;79.10;;;;;;5033477;28;20103;-66
2021/12/12 09:09:15;;;;;;;;;;;3.00;79.00;;;;;;5033344;28;19990;-66
2021/12/12 09:11:49;;;;;;;;;;;3.10;79.60;;;;;;5032519;28;19987;-66
2021/12/12 09:14:15;;;;;;;;;;;3.20;79.30;;;;;;5033291;28;19956;-66
2021/12/12 09:16:46;;;;;;;;;;;3.30;78.00;;;;;;5015615;28;19947;-66
2021/12/12 09:19:16;;;;;;;;;;;3.40;79.80;;;;;;5033305;28;19944;-66
2021/12/12 09:21:50;;;;;;;;;;;3.50;77.40;;;;;;5033255;28;19939;-66
2021/12/12 09:24:44;;;;;;;;;;;3.70;77.80;;;;;;5033203;28;19955;-66
2021/12/12 09:27:11;;;;;;;;;;;3.80;78.20;;;;;;5025040;28;19942;-66
2021/12/12 09:29:41;;;;;;;;;;;4.00;77.90;;;;;;5015415;28;20039;-66
2021/12/12 09:32:07;;;;;;;;;;;4.10;78.20;;;;;;5033103;28;19948;-66
2021/12/12 09:34:39;;;;;;;;;;;4.10;77.10;;;;;;5033022;28;19969;-66
2021/12/12 09:37:24;;;;;;;;;;;4.20;77.10;;;;;;5033032;28;20037;-66
2021/12/12 09:39:55;;;;;;;;;;;4.30;76.80;;;;;;5032401;28;19952;-66
2021/12/12 09:42:27;;;;;;;;;;;4.60;75.40;;;;;;5033031;28;19950;-66
2021/12/12 09:44:58;;;;;;;;;;;4.70;75.50;;;;;;5033005;28;19969;-66
2021/12/12 09:47:35;;;;;;;;;;;4.70;74.70;;;;;;5015296;28;19951;-66
2021/12/12 09:52:55;;;;;;;;;;;4.60;76.00;;;;;;5033091;28;20413;-66
2021/12/12 09:55:26;;;;;;;;;;;4.50;76.00;;;;;;5032915;28;20042;-66
2021/12/12 09:58:02;;;;;;;;;;;4.60;76.50;;;;;;5032858;28;19944;-66
2021/12/12 10:00:32;;;;;;;;;;;4.70;76.60;;;;;;5032786;28;19947;-66
2021/12/12 10:03:02;;;;;;;;;;;4.70;75.30;;;;;;5033169;28;19953;-66
2021/12/12 10:05:30;;;;;;;;;;;4.80;73.80;;;;;;5032875;28;19940;-66
2021/12/12 10:08:08;;;;;;;;;;;4.90;73.60;;;;;;5032816;28;19943;-66
2021/12/12 10:10:33;;;;;;;;;;;5.00;72.70;;;;;;5032813;28;19984;-66
2021/12/12 10:13:07;;;;;;;;;;;5.10;72.90;;;;;;5032735;28;20021;-66
2021/12/12 10:15:38;;;;;;;;;;;5.20;73.30;;;;;;5014943;28;20003;-66
2021/12/12 10:18:08;;;;;;;;;;;5.40;73.70;;;;;;5032751;28;19999;-66
2021/12/12 10:20:36;;;;;;;;;;;5.50;73.40;;;;;;5032711;28;20403;-66
2021/12/12 10:23:04;;;;;;;;;;;5.70;72.70;;;;;;5034898;28;19937;-68
2021/12/12 10:25:33;;;;;;;;;;;6.00;72.00;;;;;;5036421;28;19984;-66
2021/12/12 10:28:07;;;;;;;;;;;6.40;70.20;;;;;;5036392;28;19937;-66
2021/12/12 10:30:35;;;;;;;;;;;6.50;71.20;;;;;;5036409;28;19945;-66
2021/12/12 10:33:16;;;;;;;;;;;6.40;71.50;;;;;;5036133;28;19965;-66
2021/12/12 10:35:58;;;;;;;;;;;6.40;72.00;;;;;;5036288;28;19944;-66
2021/12/12 10:38:33;;;;;;;;;;;6.40;70.20;;;;;;5036254;28;19982;-66
2021/12/12 10:41:04;;;;;;;;;;;6.50;69.20;;;;;;5036236;28;20005;-66
2021/12/12 10:43:32;;;;;;;;;;;6.60;66.80;;;;;;5036184;28;19937;-66
2021/12/12 10:46:01;;;;;;;;;;;6.70;67.20;;;;;;5036091;28;20017;-66
2021/12/12 10:48:34;;;;;;;;;;;6.90;67.30;;;;;;5036011;28;19981;-66
2021/12/12 10:51:05;;;;;;;;;;;7.10;68.40;;;;;;5036023;28;19962;-66
2021/12/12 10:53:50;;;;;;;;;;;7.20;69.50;;;;;;5036165;28;19964;-66
2021/12/12 10:56:33;;;;;;;;;;;7.40;70.10;;;;;;5035892;28;19939;-66
2021/12/12 10:59:01;;;;;;;;;;;7.50;70.80;;;;;;5035888;28;19994;-66
2021/12/12 11:01:37;;;;;;;;;;;7.80;70.40;;;;;;5035816;28;19953;-66
2021/12/12 11:04:18;;;;;;;;;;;8.00;69.60;;;;;;5017943;28;20038;-66
2021/12/12 11:06:58;;;;;;;;;;;8.10;67.80;;;;;;5035958;28;20038;-66
2021/12/12 11:09:27;;;;;;;;;;;8.20;64.40;;;;;;5035855;28;20002;-66
2021/12/12 11:12:01;;;;;;;;;;;8.30;64.50;;;;;;5035278;28;19992;-67
2021/12/12 11:14:31;;;;;;;;;;;8.40;62.60;;;;;;5035444;28;20036;-73
2021/12/12 11:17:03;;;;;;;;;;;8.40;63.60;;;;;;5035444;28;19943;-68
2021/12/12 11:19:32;;;;;;;;;;;8.50;62.70;;;;;;5035438;28;19999;-66
2021/12/12 11:22:04;;;;;;;;;;;8.60;62.70;;;;;;5035399;28;20033;-66
2021/12/12 11:24:32;;;;;;;;;;;8.60;63.30;;;;;;5035354;28;19945;-67
2021/12/12 11:27:01;;;;;;;;;;;8.70;64.50;;;;;;5035191;28;19985;-67
2021/12/12 11:29:29;;;;;;;;;;;8.90;61.40;;;;;;5035258;28;19937;-67
2021/12/12 11:31:57;;;;;;;;;;;8.90;61.40;;;;;;5035253;28;19960;-67
2021/12/12 11:34:24;;;;;;;;;;;9.00;60.10;;;;;;5034319;28;19988;-67
2021/12/12 11:37:03;;;;;;;;;;;9.30;59.70;;;;;;5035172;28;19954;-67
2021/12/12 11:39:47;;;;;;;;;;;9.60;60.20;;;;;;5035006;28;20492;-66
2021/12/12 11:42:19;;;;;;;;;;;10.20;58.70;;;;;;5017227;28;19945;-67
2021/12/12 11:45:03;;;;;;;;;;;10.90;57.20;;;;;;5017334;28;20005;-67
2021/12/12 11:47:51;;;;;;;;;;;11.60;52.30;;;;;;5034903;28;20041;-67
2021/12/12 11:50:23;;;;;;;;;;;12.30;52.00;;;;;;5034823;28;19951;-66
2021/12/12 11:52:52;;;;;;;;;;;12.80;48.40;;;;;;5034869;28;20210;-67
2021/12/12 11:55:38;;;;;;;;;;;13.00;47.30;;;;;;5034810;28;19971;-67
2021/12/12 11:58:06;;;;;;;;;;;13.50;48.10;;;;;;5035084;28;20000;-67
2021/12/12 12:00:46;;;;;;;;;;;13.50;46.70;;;;;;5034742;28;19940;-67
2021/12/12 12:03:30;;;;;;;;;;;13.40;45.80;;;;;;5034876;28;19990;-66
2021/12/12 12:06:14;;;;;;;;;;;13.60;45.10;;;;;;5034651;28;19970;-66
2021/12/12 12:08:45;;;;;;;;;;;13.80;45.30;;;;;;5034496;28;19955;-66
2021/12/12 12:11:17;;;;;;;;;;;13.80;43.40;;;;;;5034402;28;19973;-66
2021/12/12 12:13:48;;;;;;;;;;;13.90;44.90;;;;;;5034435;28;20505;-66
2021/12/12 12:16:27;;;;;;;;;;;13.90;43.80;;;;;;5034388;28;20433;-66
2021/12/12 12:19:11;;;;;;;;;;;14.30;43.90;;;;;;5034374;28;20437;-66
2021/12/12 12:21:39;;;;;;;;;;;14.60;42.40;;;;;;5034317;28;19944;-66
2021/12/12 12:24:26;;;;;;;;;;;14.30;42.10;;;;;;5034259;28;19937;-66
2021/12/12 12:26:51;;;;;;;;;;;14.50;43.10;;;;;;5034086;28;20069;-66
2021/12/12 12:29:26;;;;;;;;;;;14.90;42.30;;;;;;5034163;28;20031;-66
2021/12/12 12:32:04;;;;;;;;;;;15.10;41.60;;;;;;5034422;28;19941;-67
2021/12/12 12:34:48;;;;;;;;;;;15.40;42.50;;;;;;5033996;28;20057;-67
2021/12/12 12:37:32;;;;;;;;;;;15.80;41.30;;;;;;5034006;28;19944;-67
2021/12/12 12:40:16;;;;;;;;;;;16.00;39.60;;;;;;5033946;28;19945;-67
2021/12/12 12:43:00;;;;;;;;;;;16.10;37.60;;;;;;5033916;28;19950;-67
2021/12/12 12:45:59;;;;;;;;;;;16.10;39.90;;;;;;5016117;28;19998;-66
2021/12/12 12:48:44;;;;;;;;;;;16.20;36.60;;;;;;5015679;28;19948;-67
2021/12/12 12:51:21;;;;;;;;;;;16.20;37.90;;;;;;5033749;28;20408;-67
2021/12/12 12:53:56;;;;;;;;;;;16.00;37.10;;;;;;5033634;28;19964;-67
2021/12/12 12:56:39;;;;;;;;;;;15.90;36.70;;;;;;5033711;28;19943;-67
2021/12/12 12:59:23;;;;;;;;;;;15.80;37.90;;;;;;5033667;28;19945;-67
2021/12/12 13:01:55;;;;;;;;;;;15.90;38.10;;;;;;5033606;28;19997;-67
2021/12/12 13:04:30;;;;;;;;;;;16.70;36.20;;;;;;5033541;28;19956;-67
2021/12/12 13:07:05;;;;;;;;;;;16.60;35.20;;;;;;5033538;28;19983;-66
2021/12/12 13:12:16;;;;;;;;;;;16.20;37.70;;;;;;5060209;22;20033;-67
2021/12/12 13:14:50;;;;;;;;;;;16.00;36.10;;;;;;5053262;28;19962;-67
2021/12/12 13:17:20;;;;;;;;;;;15.70;36.00;;;;;;5052767;28;20274;-67
2021/12/12 13:19:58;;;;;;;;;;;15.70;36.40;;;;;;5053152;28;19948;-67
2021/12/12 13:22:23;;;;;;;;;;;15.40;36.80;;;;;;5053232;28;20443;-67
2021/12/12 13:25:10;;;;;;;;;;;15.30;37.80;;;;;;5053154;28;19947;-67
2021/12/12 13:28:03;;;;;;;;;;;15.30;39.20;;;;;;5053238;28;19972;-67
2021/12/12 13:30:41;;;;;;;;;;;15.50;39.40;;;;;;5053064;28;19972;-67
2021/12/12 13:33:11;;;;;;;;;;;15.80;39.70;;;;;;5052992;28;19956;-67
2021/12/12 13:35:44;;;;;;;;;;;16.30;38.60;;;;;;5053036;28;19949;-67
2021/12/12 13:38:10;;;;;;;;;;;16.70;38.90;;;;;;5052956;28;20023;-67
2021/12/12 13:40:48;;;;;;;;;;;17.30;37.80;;;;;;5052931;28;19983;-67
2021/12/12 13:43:32;;;;;;;;;;;17.70;37.20;;;;;;5052894;28;19985;-67
2021/12/12 13:46:01;;;;;;;;;;;18.20;35.90;;;;;;5052979;28;19942;-67
2021/12/12 13:48:39;;;;;;;;;;;18.50;35.30;;;;;;5052940;28;19942;-67
2021/12/12 13:51:24;;;;;;;;;;;17.90;37.00;;;;;;5052973;28;19940;-67
2021/12/12 13:54:01;;;;;;;;;;;17.30;38.20;;;;;;5052860;28;19965;-67
2021/12/12 13:56:52;;;;;;;;;;;17.50;38.20;;;;;;5052881;28;20039;-67
2021/12/12 13:59:21;;;;;;;;;;;17.30;38.40;;;;;;5032839;28;19946;-67
2021/12/12 14:01:54;;;;;;;;;;;16.70;39.80;;;;;;5056912;28;19943;-67
2021/12/12 14:04:23;;;;;;;;;;;16.40;40.20;;;;;;5056830;28;19941;-67
2021/12/12 14:06:50;;;;;;;;;;;16.40;40.70;;;;;;5057123;28;19936;-67
2021/12/12 14:09:17;;;;;;;;;;;16.30;36.70;;;;;;5056750;28;20040;-67
2021/12/12 14:11:45;;;;;;;;;;;16.20;36.60;;;;;;5056617;28;20000;-67
2021/12/12 14:14:15;;;;;;;;;;;15.80;37.90;;;;;;5056614;28;19974;-67
2021/12/12 14:16:44;;;;;;;;;;;15.50;36.10;;;;;;5056661;28;19940;-67
2021/12/12 14:19:13;;;;;;;;;;;15.10;37.70;;;;;;5056586;28;19939;-67
2021/12/12 14:21:39;;;;;;;;;;;15.00;39.20;;;;;;5056525;28;19948;-67
2021/12/12 14:24:07;;;;;;;;;;;14.80;39.10;;;;;;5056777;28;19937;-67
2021/12/12 14:26:34;;;;;;;;;;;14.50;40.50;;;;;;5055066;28;19954;-67
2021/12/12 14:29:02;;;;;;;;;;;14.50;41.40;;;;;;5056423;28;19950;-67
2021/12/12 14:31:29;;;;;;;;;;;14.60;41.10;;;;;;5056360;28;19959;-67
2021/12/12 14:33:58;;;;;;;;;;;14.60;41.70;;;;;;5056235;28;19960;-67
2021/12/12 14:36:25;;;;;;;;;;;14.70;41.10;;;;;;5056294;28;19947;-67
2021/12/12 14:38:51;;;;;;;;;;;14.50;42.40;;;;;;5056209;28;20040;-67
2021/12/12 14:41:32;;;;;;;;;;;14.30;42.20;;;;;;5056780;28;19951;-67
2021/12/12 14:43:58;;;;;;;;;;;14.20;43.70;;;;;;5056153;28;19945;-67
2021/12/12 14:46:27;;;;;;;;;;;13.90;45.10;;;;;;5056099;28;19995;-67